Time;durP1;ratioP1;P1;durP2;ratioP2;P2;SDS_P1;SDS_P2;PMS_P1;PMS_P2;Temp;Humidity;BMP_temperature;BMP_pressure;BME280_temperature;BME280_humidity;BME280_pressure;Samples;Min_cycle;Max_cycle;Signal;HPM_P1;HPM_P2
2022/08/08 00:00:57;;;;;;;1999.90;999.90;;;;;;;;;;5124542;27;20396;-76
2022/08/08 00:03:40;;;;;;;1999.90;999.90;;;;;;;;;;5124513;27;20406;-78
2022/08/08 00:06:12;;;;;;;1999.90;999.90;;;;;;;;;;5108933;27;20426;-77
2022/08/08 00:08:44;;;;;;;1999.90;999.90;;;;;;;;;;5114514;27;20402;-76
2022/08/08 00:11:19;;;;;;;1999.90;999.90;;;;;;;;;;5134990;27;20401;-77
2022/08/08 00:13:54;;;;;;;1999.90;999.90;;;;;;;;;;5127254;27;20405;-77
2022/08/08 00:16:47;;;;;;;1999.90;999.90;;;;;;;;;;5109937;27;20392;-78
2022/08/08 00:19:18;;;;;;;1999.90;999.90;;;;;;;;;;5113757;27;20394;-75
2022/08/08 00:21:47;;;;;;;1999.90;999.90;;;;;;;;;;5098482;27;20506;-76
2022/08/08 00:24:17;;;;;;;1999.90;999.90;;;;;;;;;;5133786;27;20393;-76
2022/08/08 00:26:57;;;;;;;1999.90;999.90;;;;;;;;;;5099564;27;20489;-76
2022/08/08 00:29:27;;;;;;;1999.90;999.90;;;;;;;;;;5116889;27;20406;-76
2022/08/08 00:32:16;;;;;;;1999.90;999.90;;;;;;;;;;5110281;27;20378;-76
2022/08/08 00:35:11;;;;;;;1999.90;999.90;;;;;;;;;;5136351;27;20393;-76
2022/08/08 00:37:53;;;;;;;1999.90;999.90;;;;;;;;;;5133044;27;20427;-76
2022/08/08 00:40:40;;;;;;;1999.90;999.90;;;;;;;;;;5110711;27;20631;-77
2022/08/08 00:43:41;;;;;;;1999.90;999.90;;;;;;;;;;5119835;27;21090;-76
2022/08/08 00:46:44;;;;;;;1999.90;999.90;;;;;;;;;;5128103;27;20388;-77
2022/08/08 00:49:45;;;;;;;1999.90;999.90;;;;;;;;;;5111822;27;20405;-76
2022/08/08 00:52:37;;;;;;;1999.90;999.90;;;;;;;;;;5111294;27;20392;-77
2022/08/08 00:55:16;;;;;;;1999.90;999.90;;;;;;;;;;5126057;27;20523;-77
2022/08/08 00:58:10;;;;;;;1999.90;999.90;;;;;;;;;;5096350;27;20475;-77
2022/08/08 01:00:48;;;;;;;1999.90;999.90;;;;;;;;;;5093653;27;20473;-77
2022/08/08 01:03:37;;;;;;;1999.90;999.90;;;;;;;;;;5093160;27;20398;-77
2022/08/08 01:06:45;;;;;;;1999.90;999.90;;;;;;;;;;5095626;27;20414;-77
2022/08/08 01:09:35;;;;;;;1999.90;999.90;;;;;;;;;;5108482;27;20409;-77
2022/08/08 01:12:50;;;;;;;1999.90;999.90;;;;;;;;;;5127369;27;20396;-78
2022/08/08 01:15:50;;;;;;;1999.90;999.90;;;;;;;;;;5021543;28;20402;-78
2022/08/08 01:18:39;;;;;;;1999.90;999.90;;;;;;;;;;5052977;28;20468;-77
2022/08/08 01:21:39;;;;;;;1999.90;999.90;;;;;;;;;;5116730;27;20385;-78
2022/08/08 01:24:50;;;;;;;1999.90;999.90;;;;;;;;;;5108276;27;20396;-78
2022/08/08 01:27:50;;;;;;;1999.90;999.90;;;;;;;;;;5110759;27;20406;-79
2022/08/08 01:30:45;;;;;;;1999.90;999.90;;;;;;;;;;5125880;27;20389;-78
2022/08/08 01:33:39;;;;;;;1999.90;999.90;;;;;;;;;;5106698;27;20859;-77
2022/08/08 01:36:50;;;;;;;1999.90;999.90;;;;;;;;;;5115806;27;21014;-77
2022/08/08 01:39:26;;;;;;;1999.90;999.90;;;;;;;;;;5125981;27;20396;-78
2022/08/08 01:42:03;;;;;;;1999.90;999.90;;;;;;;;;;5106802;27;20407;-77
2022/08/08 01:44:42;;;;;;;1999.90;999.90;;;;;;;;;;5100858;27;20518;-77
2022/08/08 01:47:21;;;;;;;1999.90;999.90;;;;;;;;;;5124809;27;20401;-76
2022/08/08 01:50:20;;;;;;;1999.90;999.90;;;;;;;;;;5110269;27;20397;-78
2022/08/08 01:52:59;;;;;;;1999.90;999.90;;;;;;;;;;5095485;27;20415;-77
2022/08/08 01:55:52;;;;;;;1999.90;999.90;;;;;;;;;;5136412;27;20365;-78
2022/08/08 01:58:44;;;;;;;1999.90;999.90;;;;;;;;;;5108391;27;20393;-78
2022/08/08 02:01:25;;;;;;;1999.90;999.90;;;;;;;;;;5105416;27;20435;-78
2022/08/08 02:04:18;;;;;;;1999.90;999.90;;;;;;;;;;5095296;27;20921;-77
2022/08/08 02:06:55;;;;;;;1999.90;999.90;;;;;;;;;;5118133;27;20468;-77
2022/08/08 02:09:31;;;;;;;1999.90;999.90;;;;;;;;;;5096171;27;20378;-77
2022/08/08 02:12:24;;;;;;;1999.90;999.90;;;;;;;;;;5109734;27;20409;-77
2022/08/08 02:14:58;;;;;;;1999.90;999.90;;;;;;;;;;5099156;27;20897;-76
2022/08/08 02:17:38;;;;;;;1999.90;999.90;;;;;;;;;;5126154;27;20394;-77
2022/08/08 02:20:21;;;;;;;1999.90;999.90;;;;;;;;;;5108871;27;20974;-77
2022/08/08 02:23:20;;;;;;;1999.90;999.90;;;;;;;;;;5110142;27;20406;-76
2022/08/08 02:25:52;;;;;;;1999.90;999.90;;;;;;;;;;5112325;27;20386;-76
2022/08/08 02:28:31;;;;;;;1999.90;999.90;;;;;;;;;;5092610;27;21766;-76
2022/08/08 02:31:06;;;;;;;1999.90;999.90;;;;;;;;;;5107592;27;20398;-76
2022/08/08 02:34:01;;;;;;;1999.90;999.90;;;;;;;;;;5107521;27;20555;-76
2022/08/08 02:36:39;;;;;;;1999.90;999.90;;;;;;;;;;5112084;27;20405;-76
2022/08/08 02:39:23;;;;;;;1999.90;999.90;;;;;;;;;;5108119;27;20469;-77
2022/08/08 02:42:27;;;;;;;1999.90;999.90;;;;;;;;;;5127828;27;20900;-77
2022/08/08 02:45:20;;;;;;;1999.90;999.90;;;;;;;;;;5110004;27;20436;-76
2022/08/08 02:48:05;;;;;;;1999.90;999.90;;;;;;;;;;5115568;27;20434;-77
2022/08/08 02:51:05;;;;;;;1999.90;999.90;;;;;;;;;;5104412;27;20871;-77
2022/08/08 02:53:56;;;;;;;1999.90;999.90;;;;;;;;;;5126440;27;20510;-77
2022/08/08 02:56:36;;;;;;;1999.90;999.90;;;;;;;;;;5110817;27;20426;-76
2022/08/08 02:59:36;;;;;;;1999.90;999.90;;;;;;;;;;5121140;27;20627;-77
2022/08/08 03:02:45;;;;;;;1999.90;999.90;;;;;;;;;;5031231;28;20399;-77
2022/08/08 03:05:28;;;;;;;1999.90;999.90;;;;;;;;;;5124534;27;20443;-77
2022/08/08 03:08:42;;;;;;;1999.90;999.90;;;;;;;;;;5102443;27;21182;-77
2022/08/08 03:11:33;;;;;;;1999.90;999.90;;;;;;;;;;5112535;27;21136;-77
2022/08/08 03:14:34;;;;;;;1999.90;999.90;;;;;;;;;;5132929;27;20407;-77
2022/08/08 03:17:25;;;;;;;1999.90;999.90;;;;;;;;;;5117690;27;20389;-77
2022/08/08 03:20:09;;;;;;;1999.90;999.90;;;;;;;;;;5098674;27;20550;-77
2022/08/08 03:22:46;;;;;;;1999.90;999.90;;;;;;;;;;5118464;27;21188;-77
2022/08/08 03:25:14;;;;;;;1999.90;999.90;;;;;;;;;;5109560;27;20439;-77
2022/08/08 03:27:54;;;;;;;1999.90;999.90;;;;;;;;;;5103488;27;20396;-77
2022/08/08 03:30:25;;;;;;;1999.90;999.90;;;;;;;;;;5136989;27;20407;-76
2022/08/08 03:36:01;;;;;;;1999.90;999.90;;;;;;;;;;5113148;27;20494;-77
2022/08/08 03:38:32;;;;;;;1999.90;999.90;;;;;;;;;;5096324;27;21151;-77
2022/08/08 03:41:21;;;;;;;1999.90;999.90;;;;;;;;;;5095788;27;20402;-76
2022/08/08 03:44:10;;;;;;;1999.90;999.90;;;;;;;;;;5126417;27;21275;-77
2022/08/08 03:46:44;;;;;;;1999.90;999.90;;;;;;;;;;5104397;27;20389;-77
2022/08/08 03:49:19;;;;;;;1999.90;999.90;;;;;;;;;;5097785;27;20386;-77
2022/08/08 03:52:07;;;;;;;1999.90;999.90;;;;;;;;;;5096116;27;21116;-77
2022/08/08 03:54:42;;;;;;;1999.90;999.90;;;;;;;;;;5110825;27;20414;-77
2022/08/08 03:57:29;;;;;;;1999.90;999.90;;;;;;;;;;5097312;27;20377;-77
2022/08/08 04:00:19;;;;;;;1999.90;999.90;;;;;;;;;;5108449;27;21233;-76
2022/08/08 04:02:56;;;;;;;1999.90;999.90;;;;;;;;;;5124916;27;20447;-78
2022/08/08 04:05:25;;;;;;;1999.90;999.90;;;;;;;;;;5098880;27;20403;-75
2022/08/08 04:08:00;;;;;;;1999.90;999.90;;;;;;;;;;5126290;27;20890;-73
2022/08/08 04:10:31;;;;;;;1999.90;999.90;;;;;;;;;;5103276;27;20401;-76
2022/08/08 04:13:03;;;;;;;1999.90;999.90;;;;;;;;;;5096489;27;20479;-74
2022/08/08 04:15:49;;;;;;;1999.90;999.90;;;;;;;;;;5126894;27;20489;-75
2022/08/08 04:18:33;;;;;;;1999.90;999.90;;;;;;;;;;5125916;27;21008;-75
2022/08/08 04:21:09;;;;;;;1999.90;999.90;;;;;;;;;;5107160;27;20875;-74
2022/08/08 04:23:40;;;;;;;1999.90;999.90;;;;;;;;;;5126178;27;20392;-76
2022/08/08 04:26:29;;;;;;;1999.90;999.90;;;;;;;;;;5128371;27;20396;-76
2022/08/08 04:29:17;;;;;;;1999.90;999.90;;;;;;;;;;5098223;27;20935;-75
2022/08/08 04:31:45;;;;;;;1999.90;999.90;;;;;;;;;;5099239;27;20398;-75
2022/08/08 04:34:28;;;;;;;1999.90;999.90;;;;;;;;;;5108324;27;20401;-74
2022/08/08 04:37:15;;;;;;;1999.90;999.90;;;;;;;;;;5131123;27;21579;-75
2022/08/08 04:39:43;;;;;;;1999.90;999.90;;;;;;;;;;5116449;27;20394;-75
2022/08/08 04:42:35;;;;;;;1999.90;999.90;;;;;;;;;;5100522;27;20723;-75
2022/08/08 04:45:04;;;;;;;1999.90;999.90;;;;;;;;;;5115444;27;20407;-74
2022/08/08 04:47:32;;;;;;;1999.90;999.90;;;;;;;;;;5107822;27;20401;-75
2022/08/08 04:50:10;;;;;;;1999.90;999.90;;;;;;;;;;5102074;27;20419;-75
2022/08/08 04:52:51;;;;;;;1999.90;999.90;;;;;;;;;;5121936;27;20500;-75
2022/08/08 04:55:32;;;;;;;1999.90;999.90;;;;;;;;;;5092643;27;21315;-76
2022/08/08 04:58:21;;;;;;;1999.90;999.90;;;;;;;;;;5098700;27;20374;-75
2022/08/08 05:00:50;;;;;;;1999.90;999.90;;;;;;;;;;5110227;27;20853;-74
2022/08/08 05:03:18;;;;;;;1999.90;999.90;;;;;;;;;;5105777;27;20405;-75
2022/08/08 05:06:07;;;;;;;1999.90;999.90;;;;;;;;;;5103587;27;20406;-75
2022/08/08 05:08:45;;;;;;;1999.90;999.90;;;;;;;;;;5105013;27;20405;-75
2022/08/08 05:11:20;;;;;;;1999.90;999.90;;;;;;;;;;5099708;27;20467;-75
2022/08/08 05:13:59;;;;;;;1999.90;999.90;;;;;;;;;;5114833;27;20405;-76
2022/08/08 05:16:32;;;;;;;1999.90;999.90;;;;;;;;;;5118258;27;20405;-75
2022/08/08 05:19:22;;;;;;;1999.90;999.90;;;;;;;;;;5110460;27;20499;-75
2022/08/08 05:22:11;;;;;;;1999.90;999.90;;;;;;;;;;5119951;27;20535;-75
2022/08/08 05:24:45;;;;;;;1999.90;999.90;;;;;;;;;;5103319;27;20704;-74
2022/08/08 05:27:17;;;;;;;1999.90;999.90;;;;;;;;;;5117536;27;20432;-75
2022/08/08 05:29:47;;;;;;;1999.90;999.90;;;;;;;;;;5103848;27;20400;-75
2022/08/08 05:32:22;;;;;;;1999.90;999.90;;;;;;;;;;5124481;27;20413;-75
2022/08/08 05:34:58;;;;;;;1999.90;999.90;;;;;;;;;;5099888;27;20401;-75
2022/08/08 05:37:36;;;;;;;1999.90;999.90;;;;;;;;;;5123930;27;20404;-75
2022/08/08 05:40:53;;;;;;;1999.90;999.90;;;;;;;;;;5097816;27;20489;-76
2022/08/08 05:43:29;;;;;;;1999.90;999.90;;;;;;;;;;5110742;27;21773;-75
2022/08/08 05:46:19;;;;;;;1999.90;999.90;;;;;;;;;;5099714;27;20821;-75
2022/08/08 05:48:47;;;;;;;1999.90;999.90;;;;;;;;;;5116547;27;20433;-75
2022/08/08 05:51:22;;;;;;;1999.90;999.90;;;;;;;;;;5115996;27;20870;-74
2022/08/08 05:53:54;;;;;;;1999.90;999.90;;;;;;;;;;5114380;27;20499;-74
2022/08/08 05:56:43;;;;;;;1999.90;999.90;;;;;;;;;;5100095;27;20396;-75
2022/08/08 05:59:18;;;;;;;1999.90;999.90;;;;;;;;;;5097894;27;20489;-75
2022/08/08 06:03:09;;;;;;;1999.90;999.90;;;;;;;;;;5096701;27;20518;-75
2022/08/08 06:05:04;;;;;;;1999.90;999.90;;;;;;;;;;5111819;27;20473;-75
2022/08/08 06:07:53;;;;;;;1999.90;999.90;;;;;;;;;;5100897;27;21099;-74
2022/08/08 06:10:32;;;;;;;1999.90;999.90;;;;;;;;;;5107207;27;20408;-74
2022/08/08 06:13:02;;;;;;;1999.90;999.90;;;;;;;;;;5098417;27;20735;-74
2022/08/08 06:15:32;;;;;;;1999.90;999.90;;;;;;;;;;5114740;27;20480;-74
2022/08/08 06:18:24;;;;;;;1999.90;999.90;;;;;;;;;;5099763;27;20398;-75
2022/08/08 06:20:54;;;;;;;1999.90;999.90;;;;;;;;;;5118027;27;20893;-75
2022/08/08 06:23:24;;;;;;;1999.90;999.90;;;;;;;;;;5112996;27;20516;-75
2022/08/08 06:26:13;;;;;;;1999.90;999.90;;;;;;;;;;5140912;27;20389;-74
2022/08/08 06:29:04;;;;;;;1999.90;999.90;;;;;;;;;;5112216;27;20444;-74
2022/08/08 06:31:56;;;;;;;1999.90;999.90;;;;;;;;;;5097860;27;20393;-75
2022/08/08 06:34:46;;;;;;;1999.90;999.90;;;;;;;;;;5099137;27;20381;-74
2022/08/08 06:37:38;;;;;;;1999.90;999.90;;;;;;;;;;5111464;27;20389;-75
2022/08/08 06:40:13;;;;;;;1999.90;999.90;;;;;;;;;;5123037;27;20384;-75
2022/08/08 06:42:51;;;;;;;1999.90;999.90;;;;;;;;;;5128406;27;20498;-75
2022/08/08 06:45:24;;;;;;;1999.90;999.90;;;;;;;;;;5096632;27;20409;-74
2022/08/08 06:47:52;;;;;;;1999.90;999.90;;;;;;;;;;5119359;27;20475;-74
2022/08/08 06:50:35;;;;;;;1999.90;999.90;;;;;;;;;;5124763;27;20392;-74
2022/08/08 06:53:08;;;;;;;1999.90;999.90;;;;;;;;;;5127687;27;20423;-75
2022/08/08 06:55:41;;;;;;;1999.90;999.90;;;;;;;;;;5128006;27;20415;-75
2022/08/08 06:58:10;;;;;;;1999.90;999.90;;;;;;;;;;5101439;27;20897;-75
2022/08/08 07:00:39;;;;;;;1999.90;999.90;;;;;;;;;;5110078;27;20406;-74
2022/08/08 07:03:09;;;;;;;1999.90;999.90;;;;;;;;;;5101240;27;20396;-74
2022/08/08 07:06:00;;;;;;;1999.90;999.90;;;;;;;;;;5103582;27;20376;-75
2022/08/08 07:08:35;;;;;;;1999.90;999.90;;;;;;;;;;5123869;27;20399;-74
2022/08/08 07:11:03;;;;;;;1999.90;999.90;;;;;;;;;;5123975;27;20396;-74
2022/08/08 07:13:36;;;;;;;1999.90;999.90;;;;;;;;;;5119542;27;20398;-75
2022/08/08 07:16:32;;;;;;;1999.90;999.90;;;;;;;;;;5120198;27;20378;-73
2022/08/08 07:19:08;;;;;;;1999.90;999.90;;;;;;;;;;5136081;27;20743;-73
2022/08/08 07:21:49;;;;;;;1999.90;999.90;;;;;;;;;;5111398;27;20389;-74
2022/08/08 07:24:19;;;;;;;1999.90;999.90;;;;;;;;;;5112070;27;20507;-73
2022/08/08 07:26:55;;;;;;;1999.90;999.90;;;;;;;;;;5103371;27;20382;-73
2022/08/08 07:29:24;;;;;;;1999.90;999.90;;;;;;;;;;5128899;27;20412;-75
2022/08/08 07:32:12;;;;;;;1999.90;999.90;;;;;;;;;;5098543;27;20423;-74
2022/08/08 07:34:47;;;;;;;1999.90;999.90;;;;;;;;;;5102768;27;20491;-74
2022/08/08 07:37:30;;;;;;;1999.90;999.90;;;;;;;;;;5098213;27;20465;-74
2022/08/08 07:40:23;;;;;;;1999.90;999.90;;;;;;;;;;5126204;27;20458;-74
2022/08/08 07:43:02;;;;;;;1999.90;999.90;;;;;;;;;;5101727;27;20408;-74
2022/08/08 07:45:35;;;;;;;1999.90;999.90;;;;;;;;;;5110340;27;20861;-74
2022/08/08 07:48:23;;;;;;;1999.90;999.90;;;;;;;;;;5100698;27;20389;-75
2022/08/08 07:50:59;;;;;;;1999.90;999.90;;;;;;;;;;5109805;27;20427;-74
2022/08/08 07:53:33;;;;;;;1999.90;999.90;;;;;;;;;;5112206;27;20460;-74
2022/08/08 07:56:23;;;;;;;1999.90;999.90;;;;;;;;;;5119832;27;20405;-74
2022/08/08 07:59:06;;;;;;;1999.90;999.90;;;;;;;;;;5111226;27;20482;-74
2022/08/08 08:01:38;;;;;;;1999.90;999.90;;;;;;;;;;5119961;27;20391;-75
2022/08/08 08:04:29;;;;;;;1999.90;999.90;;;;;;;;;;5112485;27;20398;-74
2022/08/08 08:06:59;;;;;;;1999.90;999.90;;;;;;;;;;5135844;27;20420;-74
2022/08/08 08:09:31;;;;;;;1999.90;999.90;;;;;;;;;;5123713;27;20384;-74
2022/08/08 08:12:03;;;;;;;1999.90;999.90;;;;;;;;;;5112996;27;20476;-74
2022/08/08 08:14:41;;;;;;;1999.90;999.90;;;;;;;;;;5107984;27;20467;-74
2022/08/08 08:17:13;;;;;;;1999.90;999.90;;;;;;;;;;5113001;27;20432;-74
2022/08/08 08:19:43;;;;;;;1999.90;999.90;;;;;;;;;;5095630;27;20409;-74
2022/08/08 08:22:15;;;;;;;1999.90;999.90;;;;;;;;;;5113003;27;20526;-74
2022/08/08 08:25:01;;;;;;;1999.90;999.90;;;;;;;;;;5109510;27;20431;-75
2022/08/08 08:27:36;;;;;;;1999.90;999.90;;;;;;;;;;5127810;27;20400;-74
2022/08/08 08:30:14;;;;;;;1999.90;999.90;;;;;;;;;;5136267;27;20518;-74
2022/08/08 08:32:43;;;;;;;1999.90;999.90;;;;;;;;;;5114209;27;20406;-74
2022/08/08 08:35:18;;;;;;;1999.90;999.90;;;;;;;;;;5096830;27;21255;-74
2022/08/08 08:37:57;;;;;;;1999.90;999.90;;;;;;;;;;5099572;27;20408;-74
2022/08/08 08:40:49;;;;;;;1999.90;999.90;;;;;;;;;;5116856;27;20436;-74
2022/08/08 08:43:19;;;;;;;1999.90;999.90;;;;;;;;;;5102494;27;20414;-74
2022/08/08 08:45:56;;;;;;;1999.90;999.90;;;;;;;;;;5116264;27;20388;-73
2022/08/08 08:48:25;;;;;;;1999.90;999.90;;;;;;;;;;5111498;27;20865;-74
2022/08/08 08:50:57;;;;;;;1999.90;999.90;;;;;;;;;;5112670;27;20970;-74
2022/08/08 08:53:26;;;;;;;1999.90;999.90;;;;;;;;;;5109894;27;20429;-75
2022/08/08 08:56:20;;;;;;;1999.90;999.90;;;;;;;;;;5111225;27;20392;-75
2022/08/08 08:58:55;;;;;;;1999.90;999.90;;;;;;;;;;5098025;27;21700;-76
2022/08/08 09:01:32;;;;;;;1999.90;999.90;;;;;;;;;;5096716;27;20386;-75
2022/08/08 09:04:06;;;;;;;1999.90;999.90;;;;;;;;;;5104229;27;20394;-75
2022/08/08 09:06:57;;;;;;;1999.90;999.90;;;;;;;;;;5135875;27;20822;-73
2022/08/08 09:09:26;;;;;;;1999.90;999.90;;;;;;;;;;5108697;27;20392;-73
2022/08/08 09:12:21;;;;;;;1999.90;999.90;;;;;;;;;;5111417;27;20483;-75
2022/08/08 09:14:51;;;;;;;1999.90;999.90;;;;;;;;;;5111391;27;20449;-74
2022/08/08 09:17:23;;;;;;;1999.90;999.90;;;;;;;;;;5101037;27;20465;-74
2022/08/08 09:20:11;;;;;;;1999.90;999.90;;;;;;;;;;5104327;27;20439;-74
2022/08/08 09:23:01;;;;;;;1999.90;999.90;;;;;;;;;;5124136;27;20382;-74
2022/08/08 09:25:30;;;;;;;1999.90;999.90;;;;;;;;;;5108857;27;20382;-74
2022/08/08 09:28:19;;;;;;;1999.90;999.90;;;;;;;;;;5117614;27;20397;-74
2022/08/08 09:31:06;;;;;;;1999.90;999.90;;;;;;;;;;5108087;27;20405;-74
2022/08/08 09:33:44;;;;;;;1999.90;999.90;;;;;;;;;;5110440;27;20889;-74
2022/08/08 09:36:33;;;;;;;1999.90;999.90;;;;;;;;;;5128749;27;20390;-73
2022/08/08 09:39:04;;;;;;;1999.90;999.90;;;;;;;;;;5126596;27;20479;-74
2022/08/08 09:41:50;;;;;;;1999.90;999.90;;;;;;;;;;5100563;27;20893;-74
2022/08/08 09:44:49;;;;;;;1999.90;999.90;;;;;;;;;;5115782;27;20382;-73
2022/08/08 09:47:19;;;;;;;1999.90;999.90;;;;;;;;;;5118113;27;20416;-74
2022/08/08 09:50:08;;;;;;;1999.90;999.90;;;;;;;;;;5105245;27;20390;-74
2022/08/08 09:52:41;;;;;;;1999.90;999.90;;;;;;;;;;5095957;27;20397;-75
2022/08/08 09:55:24;;;;;;;1999.90;999.90;;;;;;;;;;5129585;27;20379;-75
2022/08/08 09:58:15;;;;;;;1999.90;999.90;;;;;;;;;;5114273;27;20389;-74
2022/08/08 10:00:55;;;;;;;1999.90;999.90;;;;;;;;;;5116330;27;20394;-74
2022/08/08 10:03:27;;;;;;;1999.90;999.90;;;;;;;;;;5113916;27;20409;-74
2022/08/08 10:05:59;;;;;;;1999.90;999.90;;;;;;;;;;5108469;27;20875;-74
2022/08/08 10:08:31;;;;;;;1999.90;999.90;;;;;;;;;;5134598;27;20383;-74
2022/08/08 10:10:59;;;;;;;1999.90;999.90;;;;;;;;;;5134082;27;21120;-74
2022/08/08 10:13:30;;;;;;;1999.90;999.90;;;;;;;;;;5112420;27;20482;-76
2022/08/08 10:16:04;;;;;;;1999.90;999.90;;;;;;;;;;5096931;27;20382;-75
2022/08/08 10:18:33;;;;;;;1999.90;999.90;;;;;;;;;;5116754;27;20389;-75
2022/08/08 10:21:02;;;;;;;1999.90;999.90;;;;;;;;;;5123893;27;20396;-75
2022/08/08 10:23:51;;;;;;;1999.90;999.90;;;;;;;;;;5121200;27;20970;-75
2022/08/08 10:26:26;;;;;;;1999.90;999.90;;;;;;;;;;5125599;27;20372;-75
2022/08/08 10:29:02;;;;;;;1999.90;999.90;;;;;;;;;;5127571;27;20438;-74
2022/08/08 10:34:18;;;;;;;1999.90;999.90;;;;;;;;;;5115838;27;20419;-74
2022/08/08 10:36:48;;;;;;;1999.90;999.90;;;;;;;;;;5103277;27;21292;-76
2022/08/08 10:39:17;;;;;;;1999.90;999.90;;;;;;;;;;5134640;27;21809;-75
2022/08/08 10:41:55;;;;;;;1999.90;999.90;;;;;;;;;;5117913;27;20386;-75
2022/08/08 10:44:42;;;;;;;1999.90;999.90;;;;;;;;;;5093441;27;1090605;-75
2022/08/08 10:47:12;;;;;;;1999.90;999.90;;;;;;;;;;5115143;27;20440;-74
2022/08/08 10:49:42;;;;;;;1999.90;999.90;;;;;;;;;;5114816;27;20416;-75
2022/08/08 10:52:29;;;;;;;1999.90;999.90;;;;;;;;;;5112488;27;20393;-74
2022/08/08 10:54:58;;;;;;;1999.90;999.90;;;;;;;;;;5118013;27;20401;-75
2022/08/08 10:57:36;;;;;;;1999.90;999.90;;;;;;;;;;5137069;27;20875;-75
2022/08/08 11:00:20;;;;;;;1999.90;999.90;;;;;;;;;;5107842;27;20398;-74
2022/08/08 11:02:50;;;;;;;1999.90;999.90;;;;;;;;;;5102035;27;20922;-74
2022/08/08 11:05:18;;;;;;;1999.90;999.90;;;;;;;;;;5095796;27;20895;-74
2022/08/08 11:07:50;;;;;;;1999.90;999.90;;;;;;;;;;5141146;27;20821;-74
2022/08/08 11:10:38;;;;;;;1999.90;999.90;;;;;;;;;;5144346;27;20415;-74
2022/08/08 11:13:07;;;;;;;1999.90;999.90;;;;;;;;;;5119461;27;20499;-75
2022/08/08 11:15:55;;;;;;;1999.90;999.90;;;;;;;;;;5129631;27;20599;-74
2022/08/08 11:18:36;;;;;;;1999.90;999.90;;;;;;;;;;5123887;27;20401;-75
2022/08/08 11:21:04;;;;;;;1999.90;999.90;;;;;;;;;;5111924;27;20410;-74
2022/08/08 11:23:40;;;;;;;1999.90;999.90;;;;;;;;;;5138867;27;20441;-78
2022/08/08 11:26:10;;;;;;;1999.90;999.90;;;;;;;;;;5141281;27;20445;-78
2022/08/08 11:28:46;;;;;;;1999.90;999.90;;;;;;;;;;5099896;27;20843;-74
2022/08/08 11:31:17;;;;;;;1999.90;999.90;;;;;;;;;;5126376;27;20389;-74
2022/08/08 11:33:50;;;;;;;1999.90;999.90;;;;;;;;;;5126340;27;20478;-74
2022/08/08 11:36:38;;;;;;;1999.90;999.90;;;;;;;;;;5133564;27;20421;-74
2022/08/08 11:39:10;;;;;;;1999.90;999.90;;;;;;;;;;5130229;27;20460;-75
2022/08/08 11:41:41;;;;;;;1999.90;999.90;;;;;;;;;;5118177;27;20397;-74
2022/08/08 11:44:12;;;;;;;1999.90;999.90;;;;;;;;;;5121240;27;20906;-78
2022/08/08 11:46:40;;;;;;;1999.90;999.90;;;;;;;;;;5119468;27;20480;-79
2022/08/08 11:49:11;;;;;;;1999.90;999.90;;;;;;;;;;5127500;27;20453;-75
2022/08/08 11:51:44;;;;;;;1999.90;999.90;;;;;;;;;;5111913;27;20391;-75
2022/08/08 11:54:29;;;;;;;1999.90;999.90;;;;;;;;;;5116386;27;20401;-74
2022/08/08 11:57:10;;;;;;;1999.90;999.90;;;;;;;;;;5117248;27;20401;-75
2022/08/08 11:59:44;;;;;;;1999.90;999.90;;;;;;;;;;5114995;27;20390;-75
2022/08/08 12:02:53;;;;;;;1999.90;999.90;;;;;;;;;;5132598;27;20403;-74
2022/08/08 12:05:32;;;;;;;1999.90;999.90;;;;;;;;;;5113990;27;20397;-75
2022/08/08 12:08:00;;;;;;;1999.90;999.90;;;;;;;;;;5117980;27;20507;-74
2022/08/08 12:10:30;;;;;;;1999.90;999.90;;;;;;;;;;5105103;27;20381;-75
2022/08/08 12:13:02;;;;;;;1999.90;999.90;;;;;;;;;;5117330;27;20394;-75
2022/08/08 12:15:31;;;;;;;1999.90;999.90;;;;;;;;;;5135458;27;20404;-74
2022/08/08 12:18:17;;;;;;;1999.90;999.90;;;;;;;;;;5133364;27;20413;-74
2022/08/08 12:20:49;;;;;;;1999.90;999.90;;;;;;;;;;5134540;27;20388;-73
2022/08/08 12:23:27;;;;;;;1999.90;999.90;;;;;;;;;;5133942;27;21194;-73
2022/08/08 12:26:10;;;;;;;1999.90;999.90;;;;;;;;;;5115900;27;20388;-76
2022/08/08 12:28:55;;;;;;;1999.90;999.90;;;;;;;;;;5131015;27;20503;-73
2022/08/08 12:31:33;;;;;;;1999.90;999.90;;;;;;;;;;5134305;27;20479;-73
2022/08/08 12:34:31;;;;;;;1999.90;999.90;;;;;;;;;;5125405;27;20402;-75
2022/08/08 12:37:05;;;;;;;1999.90;999.90;;;;;;;;;;5125267;27;20394;-75
2022/08/08 12:39:35;;;;;;;1999.90;999.90;;;;;;;;;;5120409;27;21182;-76
2022/08/08 12:42:23;;;;;;;1999.90;999.90;;;;;;;;;;5118555;27;20389;-74
2022/08/08 12:45:08;;;;;;;1999.90;999.90;;;;;;;;;;5099099;27;20947;-75
2022/08/08 12:47:59;;;;;;;1999.90;999.90;;;;;;;;;;5130431;27;20465;-73
2022/08/08 12:50:46;;;;;;;1999.90;999.90;;;;;;;;;;5131259;27;20485;-74
2022/08/08 12:53:23;;;;;;;1999.90;999.90;;;;;;;;;;5134891;27;20569;-73
2022/08/08 12:55:58;;;;;;;1999.90;999.90;;;;;;;;;;5126513;27;20409;-75
2022/08/08 12:58:46;;;;;;;1999.90;999.90;;;;;;;;;;5114447;27;20476;-75
2022/08/08 13:01:15;;;;;;;1999.90;999.90;;;;;;;;;;5115621;27;20414;-75
2022/08/08 13:03:51;;;;;;;1999.90;999.90;;;;;;;;;;5109851;27;20459;-75
2022/08/08 13:06:21;;;;;;;1999.90;999.90;;;;;;;;;;5128971;27;20398;-75
2022/08/08 13:08:55;;;;;;;1999.90;999.90;;;;;;;;;;5136543;27;20410;-78
2022/08/08 13:11:24;;;;;;;1999.90;999.90;;;;;;;;;;5119397;27;20422;-78
2022/08/08 13:14:14;;;;;;;1999.90;999.90;;;;;;;;;;5129198;27;20348;-79
2022/08/08 13:16:42;;;;;;;1999.90;999.90;;;;;;;;;;5135401;27;20383;-76
2022/08/08 13:19:16;;;;;;;1999.90;999.90;;;;;;;;;;5129778;27;20393;-76
2022/08/08 13:21:47;;;;;;;1999.90;999.90;;;;;;;;;;5132459;27;20400;-74
2022/08/08 13:24:35;;;;;;;1999.90;999.90;;;;;;;;;;5120913;27;20381;-79
2022/08/08 13:27:12;;;;;;;1999.90;999.90;;;;;;;;;;5112899;27;20986;-78
2022/08/08 13:29:48;;;;;;;1999.90;999.90;;;;;;;;;;5145276;27;20396;-77
2022/08/08 13:32:17;;;;;;;1999.90;999.90;;;;;;;;;;5135839;27;20413;-78
2022/08/08 13:34:49;;;;;;;1999.90;999.90;;;;;;;;;;5140444;27;20395;-78
2022/08/08 13:37:19;;;;;;;1999.90;999.90;;;;;;;;;;5109515;27;20385;-79
2022/08/08 13:40:10;;;;;;;1999.90;999.90;;;;;;;;;;5119239;27;20389;-77
2022/08/08 13:42:44;;;;;;;1999.90;999.90;;;;;;;;;;5136318;27;21184;-78
2022/08/08 13:45:13;;;;;;;1999.90;999.90;;;;;;;;;;5137873;27;20397;-78
2022/08/08 13:47:41;;;;;;;1999.90;999.90;;;;;;;;;;5111142;27;20396;-78
2022/08/08 13:50:24;;;;;;;1999.90;999.90;;;;;;;;;;5112436;27;20400;-78
2022/08/08 13:53:09;;;;;;;1999.90;999.90;;;;;;;;;;5119509;27;20417;-79
2022/08/08 13:55:58;;;;;;;1999.90;999.90;;;;;;;;;;5130039;27;20409;-79
2022/08/08 13:58:27;;;;;;;1999.90;999.90;;;;;;;;;;5123555;27;20380;-78
2022/08/08 14:00:55;;;;;;;1999.90;999.90;;;;;;;;;;5101504;27;21859;-78
2022/08/08 14:03:27;;;;;;;1999.90;999.90;;;;;;;;;;5115010;27;20409;-79
2022/08/08 14:06:14;;;;;;;1999.90;999.90;;;;;;;;;;5123556;27;20388;-79
2022/08/08 14:09:00;;;;;;;1999.90;999.90;;;;;;;;;;5112253;27;20483;-78
2022/08/08 14:11:50;;;;;;;1999.90;999.90;;;;;;;;;;5135319;27;20412;-77
2022/08/08 14:14:17;;;;;;;1999.90;999.90;;;;;;;;;;5122068;27;20406;-79
2022/08/08 14:16:52;;;;;;;1999.90;999.90;;;;;;;;;;5135984;27;20398;-78
2022/08/08 14:19:30;;;;;;;1999.90;999.90;;;;;;;;;;5139060;27;20492;-78
2022/08/08 14:22:19;;;;;;;1999.90;999.90;;;;;;;;;;5137611;27;20382;-78
2022/08/08 14:24:48;;;;;;;1999.90;999.90;;;;;;;;;;5121305;27;20445;-79
2022/08/08 14:27:26;;;;;;;1999.90;999.90;;;;;;;;;;5102690;27;20390;-79
2022/08/08 14:30:00;;;;;;;1999.90;999.90;;;;;;;;;;5130512;27;20387;-80
2022/08/08 14:32:28;;;;;;;1999.90;999.90;;;;;;;;;;5133362;27;20365;-79
2022/08/08 14:35:03;;;;;;;1999.90;999.90;;;;;;;;;;5141105;27;20543;-79
2022/08/08 14:37:31;;;;;;;1999.90;999.90;;;;;;;;;;5139847;27;20447;-78
2022/08/08 14:40:20;;;;;;;1999.90;999.90;;;;;;;;;;5126672;27;20386;-78
2022/08/08 14:42:52;;;;;;;1999.90;999.90;;;;;;;;;;5113539;27;20401;-79
2022/08/08 14:45:24;;;;;;;1999.90;999.90;;;;;;;;;;5117171;27;20408;-78
2022/08/08 14:48:12;;;;;;;1999.90;999.90;;;;;;;;;;5134276;27;20403;-78
2022/08/08 14:50:45;;;;;;;1999.90;999.90;;;;;;;;;;5116908;27;20505;-78
2022/08/08 14:53:14;;;;;;;1999.90;999.90;;;;;;;;;;5130055;27;20410;-78
2022/08/08 14:55:42;;;;;;;1999.90;999.90;;;;;;;;;;5144382;27;20427;-77
2022/08/08 14:58:12;;;;;;;1999.90;999.90;;;;;;;;;;5121078;27;20446;-78